Terminal Aerodrome Forecast
Issued by NWS

Home | Current Version | Previous Version | Text Only | Print | Product List | Glossary On
Versions: 1 2 3 4 5 6 7 8 9 10 11 12 13 14 15 16 17 18 19 20 21 22 23 24 25
520
FTUS45 KABQ 192150 AAC
TAFGUP
TAF AMD
KGUP 192150Z 1922/2018 23014G21KT 2SM -SN BR BKN010 OVC025
      TEMPO 1922/2002 3/4SM -SN BR OVC005
     FM200200 23010KT 1 1/2SM -SN BR BKN010 OVC025
     FM200400 23015G23KT 2SM -SN BR BKN015 OVC035
     FM201300 23012G19KT P6SM BKN025 OVC040
     FM201700 23018G25KT P6SM OVC050=

USA.gov is the U.S. government's official web portal to all federal, state and local government web resources and services.